Airport View

Enter AWOS ICAO identifier for current METAR.

ex. KFNL

PANW 202356Z AUTO 34013G17KT 10SM BKN032 OVC040 09/02 A2937 RMK AO2 SLP962 T00890022 10094 20050 55002

21 Sep 2019 00:36

Frequency: 120.275

Phone: 907-693-3086

Other Area AWOS: PAJZ - PADL - PAIG - PFWS

PADL 202321Z 2100/2124 35006KT P6SM BKN035 TEMPO 2100/2104 BKN030 FM212100 18012KT P6SM BKN050